Time;durP1;ratioP1;P1;durP2;ratioP2;P2;SDS_P1;SDS_P2;PMS_P1;PMS_P2;Temp;Humidity;BMP_temperature;BMP_pressure;BME280_temperature;BME280_humidity;BME280_pressure;Samples;Min_cycle;Max_cycle;Signal;HPM_P1;HPM_P2
2021/08/06 00:01:53;;;;;;;1.60;1.05;;;14.00;99.90;;;;;;5009812;28;20060;-83
2021/08/06 00:04:21;;;;;;;2.42;0.85;;;14.00;99.90;;;;;;4992981;28;20026;-80
2021/08/06 00:06:47;;;;;;;1.38;1.08;;;14.00;99.90;;;;;;5009989;28;20065;-80
2021/08/06 00:09:14;;;;;;;1.05;0.95;;;13.90;99.90;;;;;;4972981;28;20096;-83
2021/08/06 00:11:41;;;;;;;2.65;0.98;;;13.90;99.90;;;;;;4987726;28;20033;-80
2021/08/06 00:14:08;;;;;;;1.02;0.93;;;13.80;99.90;;;;;;5010453;28;20030;-80
2021/08/06 00:16:34;;;;;;;1.75;1.42;;;13.80;99.90;;;;;;4995250;28;20034;-83
2021/08/06 00:19:00;;;;;;;2.63;1.30;;;13.80;99.90;;;;;;5021832;28;20369;-81
2021/08/06 00:21:26;;;;;;;1.92;1.15;;;13.70;99.90;;;;;;5010257;28;20037;-82
2021/08/06 00:23:52;;;;;;;1.65;1.35;;;13.70;99.90;;;;;;5011651;28;20030;-82
2021/08/06 00:26:18;;;;;;;3.80;1.50;;;13.70;99.90;;;;;;5006432;28;20042;-82
2021/08/06 00:28:44;;;;;;;1.73;1.45;;;13.60;99.90;;;;;;5008882;28;20038;-80
2021/08/06 00:31:10;;;;;;;2.72;1.45;;;13.60;99.90;;;;;;5018047;28;20401;-81
2021/08/06 00:33:38;;;;;;;2.50;1.48;;;13.60;99.90;;;;;;5001619;28;20040;-81
2021/08/06 00:36:06;;;;;;;2.00;1.67;;;13.60;99.90;;;;;;5024385;28;20065;-81
2021/08/06 00:38:32;;;;;;;1.90;1.60;;;13.60;99.90;;;;;;5042014;28;20036;-79
2021/08/06 00:41:01;;;;;;;2.35;1.60;;;13.60;99.90;;;;;;4975611;28;20050;-82
2021/08/06 00:43:27;;;;;;;2.28;1.80;;;13.60;99.90;;;;;;4996497;28;20022;-79
2021/08/06 00:45:55;;;;;;;2.45;1.73;;;13.60;99.90;;;;;;4995885;28;20026;-80
2021/08/06 00:48:26;;;;;;;1.65;1.55;;;13.60;99.90;;;;;;5012042;28;20581;-80
2021/08/06 00:50:57;;;;;;;1.75;1.42;;;13.50;99.90;;;;;;4991704;28;20070;-79
2021/08/06 00:53:23;;;;;;;1.65;1.40;;;13.50;99.90;;;;;;5007248;28;20447;-82
2021/08/06 00:55:49;;;;;;;1.70;1.60;;;13.40;99.90;;;;;;4995819;28;20117;-79
2021/08/06 00:58:19;;;;;;;1.40;1.30;;;13.50;99.90;;;;;;4994094;28;20034;-81
2021/08/06 01:00:48;;;;;;;1.65;1.52;;;13.40;99.90;;;;;;5006820;28;20048;-79
2021/08/06 01:03:26;;;;;;;2.60;1.40;;;13.40;99.90;;;;;;5010218;28;20060;-79
2021/08/06 01:06:08;;;;;;;1.48;1.38;;;13.40;99.90;;;;;;5010580;28;20053;-82
2021/08/06 01:08:51;;;;;;;2.28;1.90;;;13.40;99.90;;;;;;5000708;28;20030;-80
2021/08/06 01:11:23;;;;;;;1.83;1.50;;;13.40;99.90;;;;;;4996256;28;20636;-80
2021/08/06 01:13:54;;;;;;;1.73;1.50;;;13.30;99.90;;;;;;5002210;28;20534;-82
2021/08/06 01:16:25;;;;;;;5.25;1.50;;;13.40;99.90;;;;;;4999893;28;20096;-80
2021/08/06 01:19:02;;;;;;;1.98;1.75;;;13.30;99.90;;;;;;4996918;28;20030;-80
2021/08/06 01:21:40;;;;;;;3.28;2.00;;;13.30;99.90;;;;;;5013481;28;20033;-82
2021/08/06 01:24:10;;;;;;;1.75;1.55;;;13.30;99.90;;;;;;4999680;28;20093;-80
2021/08/06 01:26:43;;;;;;;3.75;2.17;;;13.30;99.90;;;;;;5000394;28;20025;-79
2021/08/06 01:29:15;;;;;;;4.78;1.58;;;13.30;99.90;;;;;;5001304;28;20113;-80
2021/08/06 01:31:47;;;;;;;2.75;1.65;;;13.40;99.90;;;;;;5008161;28;20030;-82
2021/08/06 01:34:17;;;;;;;2.95;1.75;;;13.40;99.90;;;;;;4984945;28;20030;-81
2021/08/06 01:36:43;;;;;;;2.08;1.75;;;13.40;99.90;;;;;;4999682;28;20042;-81
2021/08/06 01:39:11;;;;;;;2.00;1.80;;;13.40;99.90;;;;;;5008192;28;20030;-80
2021/08/06 01:41:55;;;;;;;2.05;1.80;;;13.40;99.90;;;;;;4998073;28;20137;-82
2021/08/06 01:44:52;;;;;;;2.03;1.83;;;13.50;99.90;;;;;;5013911;28;20109;-81
2021/08/06 01:47:26;;;;;;;2.95;2.10;;;13.50;99.90;;;;;;5045989;28;20046;-81
2021/08/06 01:50:01;;;;;;;2.53;1.85;;;13.60;99.90;;;;;;5009926;28;20033;-79
2021/08/06 01:52:34;;;;;;;2.38;1.80;;;13.50;99.90;;;;;;5011033;28;20062;-79
2021/08/06 01:55:06;;;;;;;3.15;2.13;;;13.50;99.90;;;;;;5001509;28;20042;-79
2021/08/06 01:57:44;;;;;;;1.95;1.77;;;13.50;99.90;;;;;;4998079;28;20066;-79
2021/08/06 02:00:11;;;;;;;1.92;1.77;;;13.50;99.90;;;;;;4999721;28;20041;-79
2021/08/06 02:02:43;;;;;;;1.67;1.40;;;13.50;99.90;;;;;;4992389;28;20069;-79
2021/08/06 02:05:12;;;;;;;1.92;1.70;;;13.50;99.90;;;;;;5004491;28;20381;-80
2021/08/06 02:07:41;;;;;;;1.70;1.58;;;13.50;99.90;;;;;;4999884;28;20033;-80
2021/08/06 02:10:09;;;;;;;3.88;1.63;;;13.40;99.90;;;;;;4995567;28;20041;-79
2021/08/06 02:12:37;;;;;;;3.08;1.95;;;13.40;99.90;;;;;;5012956;28;20045;-80
2021/08/06 02:15:08;;;;;;;1.48;1.38;;;13.40;99.90;;;;;;5031162;28;20040;-79
2021/08/06 02:17:37;;;;;;;2.10;1.90;;;13.40;99.90;;;;;;5011895;28;20030;-80
2021/08/06 02:20:24;;;;;;;3.03;1.67;;;13.40;99.90;;;;;;4992563;28;20038;-79
2021/08/06 02:22:53;;;;;;;2.17;1.92;;;13.40;99.90;;;;;;5005109;28;20034;-79
2021/08/06 02:25:22;;;;;;;2.15;1.95;;;13.40;99.90;;;;;;5001410;28;20037;-81
2021/08/06 02:27:51;;;;;;;1.70;1.60;;;13.50;99.90;;;;;;5023189;28;20061;-79
2021/08/06 02:30:21;;;;;;;2.80;2.03;;;13.40;99.90;;;;;;5011901;28;20030;-80
2021/08/06 02:32:52;;;;;;;1.60;1.50;;;13.50;99.90;;;;;;5007595;28;20036;-80
2021/08/06 02:35:18;;;;;;;2.22;1.55;;;13.50;99.90;;;;;;4986716;28;20061;-80
2021/08/06 02:37:47;;;;;;;2.72;1.90;;;13.50;99.90;;;;;;4998584;28;20038;-80
2021/08/06 02:40:13;;;;;;;1.95;1.70;;;13.60;99.90;;;;;;5003697;28;20088;-80
2021/08/06 02:42:39;;;;;;;5.63;1.95;;;13.60;99.90;;;;;;4985135;28;20046;-80
2021/08/06 02:45:06;;;;;;;2.63;1.42;;;13.60;99.90;;;;;;4991715;28;20037;-80
2021/08/06 02:47:32;;;;;;;3.00;1.13;;;13.60;99.90;;;;;;5021782;28;20033;-80
2021/08/06 02:49:58;;;;;;;1.00;0.90;;;13.70;99.90;;;;;;5002185;28;20037;-80
2021/08/06 02:52:24;;;;;;;1.20;1.10;;;13.70;99.90;;;;;;5009492;23;20039;-80
2021/08/06 02:54:50;;;;;;;2.25;1.30;;;13.70;99.90;;;;;;4968453;28;20507;-80
2021/08/06 02:57:16;;;;;;;2.85;1.40;;;13.70;99.90;;;;;;5010219;28;20161;-79
2021/08/06 02:59:42;;;;;;;1.77;1.50;;;13.70;99.90;;;;;;4993458;28;20129;-79
2021/08/06 03:02:08;;;;;;;2.60;1.25;;;13.70;99.90;;;;;;4978036;28;20034;-79
2021/08/06 03:04:35;;;;;;;3.22;1.25;;;13.80;99.90;;;;;;4997677;28;20109;-79
2021/08/06 03:07:05;;;;;;;2.05;0.98;;;13.80;99.90;;;;;;4988871;28;20365;-80
2021/08/06 03:09:31;;;;;;;1.15;1.00;;;13.80;99.90;;;;;;4976064;28;20041;-80
2021/08/06 03:11:57;;;;;;;1.63;1.33;;;13.80;99.90;;;;;;4977549;28;20125;-79
2021/08/06 03:14:26;;;;;;;2.70;1.83;;;13.80;99.90;;;;;;4993168;28;20038;-79
2021/08/06 03:16:52;;;;;;;2.50;2.30;;;13.90;99.90;;;;;;4966388;28;20102;-79
2021/08/06 03:19:19;;;;;;;3.90;2.05;;;13.90;99.90;;;;;;5009565;28;20034;-79
2021/08/06 03:21:45;;;;;;;2.28;2.00;;;13.90;99.90;;;;;;4992864;28;20065;-79
2021/08/06 03:24:11;;;;;;;2.30;2.10;;;13.90;99.90;;;;;;4991824;28;20062;-79
2021/08/06 03:26:37;;;;;;;3.72;1.98;;;13.90;99.90;;;;;;4992835;28;20038;-79
2021/08/06 03:29:04;;;;;;;1.50;1.20;;;13.90;99.90;;;;;;5009311;28;20747;-79
2021/08/06 03:31:31;;;;;;;1.20;1.10;;;13.90;99.90;;;;;;4976998;28;20042;-79
2021/08/06 03:33:57;;;;;;;2.53;1.15;;;13.90;99.90;;;;;;4993064;28;20041;-80
2021/08/06 03:36:23;;;;;;;1.45;1.00;;;13.90;99.90;;;;;;4977762;28;20034;-80
2021/08/06 03:38:52;;;;;;;1.30;1.20;;;13.90;99.90;;;;;;4990015;28;20023;-80
2021/08/06 03:41:17;;;;;;;1.42;1.30;;;13.90;99.90;;;;;;4977075;28;20492;-79
2021/08/06 03:43:44;;;;;;;1.70;1.33;;;13.90;99.90;;;;;;5001277;28;20034;-79
2021/08/06 03:46:11;;;;;;;1.63;1.52;;;13.90;99.90;;;;;;4993235;28;20397;-79
2021/08/06 03:48:37;;;;;;;1.70;1.60;;;13.90;99.90;;;;;;4967290;28;20125;-79
2021/08/06 03:51:03;;;;;;;2.90;1.35;;;13.90;99.90;;;;;;4975667;28;20042;-79
2021/08/06 03:53:32;;;;;;;1.58;1.45;;;13.90;99.90;;;;;;4992859;28;20035;-80
2021/08/06 03:55:58;;;;;;;1.65;1.55;;;13.90;99.90;;;;;;5009269;28;20072;-80
2021/08/06 03:58:25;;;;;;;1.63;1.52;;;13.90;99.90;;;;;;5009470;28;20448;-80
2021/08/06 04:00:52;;;;;;;1.80;1.33;;;14.00;99.90;;;;;;4968332;28;20117;-79
2021/08/06 04:03:18;;;;;;;2.47;1.90;;;14.00;99.90;;;;;;4989652;28;20453;-80
2021/08/06 04:05:44;;;;;;;3.15;1.85;;;14.00;99.90;;;;;;4957212;28;20041;-79
2021/08/06 04:08:12;;;;;;;2.20;2.00;;;14.00;99.90;;;;;;4977558;28;20042;-79
2021/08/06 04:10:43;;;;;;;2.10;1.90;;;14.00;99.90;;;;;;4961656;28;20030;-79
2021/08/06 04:13:10;;;;;;;2.13;1.73;;;14.00;99.90;;;;;;4976202;28;20085;-79
2021/08/06 04:15:36;;;;;;;3.22;1.80;;;14.00;99.90;;;;;;4959280;28;20039;-79
2021/08/06 04:18:02;;;;;;;3.38;1.45;;;14.00;99.90;;;;;;4957354;28;20075;-79
2021/08/06 04:20:28;;;;;;;2.33;1.85;;;14.00;99.90;;;;;;4968783;28;20031;-79
2021/08/06 04:22:54;;;;;;;3.95;1.80;;;14.00;99.90;;;;;;4972572;28;20026;-79
2021/08/06 04:25:20;;;;;;;4.65;2.35;;;14.00;99.90;;;;;;4992328;28;20036;-79
2021/08/06 04:27:46;;;;;;;2.08;1.80;;;14.10;99.90;;;;;;4976254;28;20030;-79
2021/08/06 04:30:13;;;;;;;3.38;2.08;;;14.10;99.90;;;;;;4991221;28;20720;-80
2021/08/06 04:32:38;;;;;;;4.32;2.40;;;14.10;99.90;;;;;;4990787;28;20035;-79
2021/08/06 04:35:05;;;;;;;3.78;2.47;;;14.10;99.90;;;;;;4984739;28;20493;-79
2021/08/06 04:37:31;;;;;;;3.35;1.80;;;14.20;99.90;;;;;;4968906;28;20061;-79
2021/08/06 04:39:56;;;;;;;7.30;2.50;;;14.20;99.90;;;;;;5006194;28;20058;-79
2021/08/06 04:42:22;;;;;;;3.97;2.15;;;14.30;99.90;;;;;;4975299;28;20038;-79
2021/08/06 04:44:48;;;;;;;4.55;2.28;;;14.30;99.90;;;;;;4968239;28;20038;-79
2021/08/06 04:47:14;;;;;;;2.45;2.22;;;14.30;99.90;;;;;;4992208;28;20038;-79
2021/08/06 04:49:40;;;;;;;2.80;1.83;;;14.30;99.90;;;;;;4991582;28;20042;-79
2021/08/06 04:52:07;;;;;;;2.17;1.98;;;14.30;99.90;;;;;;5003128;28;20046;-79
2021/08/06 04:54:33;;;;;;;2.10;1.90;;;14.40;99.90;;;;;;4992218;28;20662;-79
2021/08/06 04:56:59;;;;;;;2.30;2.10;;;14.30;99.90;;;;;;4991592;28;20058;-79
2021/08/06 04:59:25;;;;;;;2.67;2.38;;;14.40;99.90;;;;;;4971559;28;20469;-79
2021/08/06 05:01:51;;;;;;;2.50;2.30;;;14.40;99.90;;;;;;4971734;28;20030;-79
2021/08/06 05:04:17;;;;;;;3.33;2.20;;;14.40;99.90;;;;;;4986880;28;20026;-79
2021/08/06 05:06:42;;;;;;;3.13;2.17;;;14.40;99.90;;;;;;4975889;28;20031;-79
2021/08/06 05:09:08;;;;;;;2.42;2.17;;;14.40;99.90;;;;;;4990607;28;20132;-79
2021/08/06 05:11:35;;;;;;;2.85;2.47;;;14.40;99.90;;;;;;5004722;28;20681;-79
2021/08/06 05:14:01;;;;;;;3.03;2.10;;;14.40;99.90;;;;;;4969913;28;20172;-79
2021/08/06 05:16:27;;;;;;;3.20;2.22;;;14.40;99.90;;;;;;4991262;28;20125;-79
2021/08/06 05:18:53;;;;;;;2.35;2.10;;;14.40;99.90;;;;;;4990638;28;20674;-79
2021/08/06 05:21:19;;;;;;;3.97;2.50;;;14.50;99.90;;;;;;4974255;28;20042;-79
2021/08/06 05:23:46;;;;;;;2.53;2.17;;;14.50;99.90;;;;;;4980562;28;20428;-80
2021/08/06 05:26:11;;;;;;;3.58;2.75;;;14.50;99.90;;;;;;4999915;28;20027;-79
2021/08/06 05:28:37;;;;;;;4.45;2.55;;;14.60;99.90;;;;;;4989803;28;20030;-79
2021/08/06 05:31:03;;;;;;;2.50;2.30;;;14.60;99.90;;;;;;4990333;28;20039;-79
2021/08/06 05:33:31;;;;;;;3.38;2.70;;;14.60;99.90;;;;;;4988994;28;20658;-80
2021/08/06 05:35:58;;;;;;;3.17;2.40;;;14.70;99.90;;;;;;4983794;28;20103;-79
2021/08/06 05:38:24;;;;;;;2.83;2.28;;;14.80;99.90;;;;;;4996555;28;20107;-80
2021/08/06 05:40:49;;;;;;;3.25;2.70;;;15.00;99.90;;;;;;4986698;28;20081;-79
2021/08/06 05:43:18;;;;;;;4.60;3.50;;;15.00;99.90;;;;;;4990851;28;20030;-79
2021/08/06 05:45:43;;;;;;;5.03;3.75;;;15.10;99.90;;;;;;4971383;28;20031;-79
2021/08/06 05:48:13;;;;;;;5.15;4.13;;;15.20;99.90;;;;;;4995013;28;20103;-79
2021/08/06 05:50:41;;;;;;;6.40;3.95;;;15.40;99.90;;;;;;4999450;28;20492;-79
2021/08/06 05:53:11;;;;;;;5.28;3.70;;;15.50;99.90;;;;;;4978606;28;20056;-80
2021/08/06 05:55:39;;;;;;;3.65;3.15;;;15.60;99.90;;;;;;4978453;28;20026;-79
2021/08/06 05:58:08;;;;;;;3.47;3.15;;;15.70;99.90;;;;;;4990530;28;20033;-79
2021/08/06 06:00:34;;;;;;;4.78;3.10;;;15.70;99.90;;;;;;4994845;28;20034;-79
2021/08/06 06:03:14;;;;;;;3.88;3.08;;;15.80;99.90;;;;;;4988640;28;20396;-79
2021/08/06 06:05:53;;;;;;;5.00;3.05;;;15.90;99.90;;;;;;4993308;28;20062;-80
2021/08/06 06:08:19;;;;;;;5.60;3.50;;;15.90;99.90;;;;;;4991889;28;20056;-79
2021/08/06 06:10:45;;;;;;;3.00;2.70;;;16.00;99.90;;;;;;4976697;28;20554;-79
2021/08/06 06:13:11;;;;;;;5.38;3.17;;;16.20;99.90;;;;;;4975045;28;20049;-80
2021/08/06 06:15:37;;;;;;;5.00;3.30;;;16.20;99.90;;;;;;5000328;28;20030;-79
2021/08/06 06:18:04;;;;;;;3.45;3.05;;;16.30;99.90;;;;;;4993301;28;20038;-79
2021/08/06 06:20:30;;;;;;;4.25;3.15;;;16.30;99.90;;;;;;4988370;28;20035;-79
2021/08/06 06:22:58;;;;;;;3.28;2.97;;;16.40;99.90;;;;;;4984591;28;20027;-80
2021/08/06 06:25:23;;;;;;;3.75;3.30;;;16.50;99.90;;;;;;4975745;28;20050;-79
2021/08/06 06:27:57;;;;;;;2.55;2.33;;;16.60;99.90;;;;;;4977459;28;20065;-79
2021/08/06 06:30:26;;;;;;;;;;;16.70;99.90;;;;;;4964138;28;20096;-80
2021/08/06 06:32:53;;;;;;;2.35;2.17;;;16.80;99.90;;;;;;4993374;28;19913;-79
2021/08/06 06:35:22;;;;;;;3.28;2.22;;;16.80;99.90;;;;;;4993873;28;20035;-80
2021/08/06 06:37:49;;;;;;;4.47;2.28;;;16.90;99.90;;;;;;4974075;28;20056;-80
2021/08/06 06:40:16;;;;;;;2.50;2.30;;;16.90;99.90;;;;;;4977442;28;20077;-79
2021/08/06 06:42:44;;;;;;;2.35;2.15;;;16.80;99.90;;;;;;4999435;28;20022;-80
2021/08/06 06:45:10;;;;;;;3.35;2.63;;;16.80;99.90;;;;;;4993061;28;20034;-80
2021/08/06 06:47:42;;;;;;;3.00;2.70;;;16.90;99.90;;;;;;4987960;28;20045;-79
2021/08/06 06:50:11;;;;;;;2.67;2.47;;;17.00;99.90;;;;;;4992355;28;20030;-79
2021/08/06 06:52:38;;;;;;;3.17;2.50;;;17.00;99.90;;;;;;4989500;28;20038;-79
2021/08/06 06:55:05;;;;;;;3.33;2.65;;;17.00;99.90;;;;;;4972301;28;20027;-79
2021/08/06 06:57:31;;;;;;;4.20;3.60;;;17.00;99.90;;;;;;4996466;28;20591;-80
2021/08/06 06:59:56;;;;;;;3.38;2.95;;;17.10;99.90;;;;;;4993331;28;20118;-79
2021/08/06 07:02:23;;;;;;;3.25;2.83;;;17.10;99.90;;;;;;4976096;28;20042;-80
2021/08/06 07:04:49;;;;;;;3.85;3.00;;;17.20;99.90;;;;;;4995416;28;20117;-79
2021/08/06 07:07:15;;;;;;;3.40;3.10;;;17.20;99.90;;;;;;4998007;28;20494;-79
2021/08/06 07:09:42;;;;;;;4.60;3.10;;;17.30;99.90;;;;;;4960101;28;20038;-79
2021/08/06 07:12:08;;;;;;;3.05;2.78;;;17.40;99.90;;;;;;4992664;28;20039;-79
2021/08/06 07:14:34;;;;;;;3.72;2.80;;;17.70;99.90;;;;;;4987270;28;20038;-79
2021/08/06 07:17:00;;;;;;;5.28;2.47;;;18.30;99.90;;;;;;4971491;28;20404;-79
2021/08/06 07:19:26;;;;;;;3.35;2.40;;;18.80;99.90;;;;;;4977172;28;20022;-79
2021/08/06 07:21:52;;;;;;;4.10;3.20;;;19.20;99.90;;;;;;4974407;28;20026;-79
2021/08/06 07:24:18;;;;;;;2.40;2.20;;;19.20;99.90;;;;;;4976749;28;20031;-80
2021/08/06 07:26:43;;;;;;;3.10;2.80;;;19.10;99.90;;;;;;4977222;28;20117;-80
2021/08/06 07:29:09;;;;;;;2.70;2.50;;;19.10;99.90;;;;;;4993249;28;20467;-79
2021/08/06 07:31:35;;;;;;;2.70;2.50;;;19.10;99.90;;;;;;4975249;28;20059;-79
2021/08/06 07:34:01;;;;;;;2.55;2.35;;;19.00;99.90;;;;;;4991580;28;20046;-80
2021/08/06 07:36:27;;;;;;;2.83;2.38;;;19.00;99.90;;;;;;4976359;28;20034;-79
2021/08/06 07:38:53;;;;;;;3.33;3.03;;;19.00;99.90;;;;;;4992608;28;20035;-79
2021/08/06 07:41:19;;;;;;;2.47;2.28;;;19.00;99.90;;;;;;4992968;28;20085;-79
2021/08/06 07:43:44;;;;;;;4.05;2.45;;;19.00;99.90;;;;;;4991335;28;20026;-80
2021/08/06 07:46:11;;;;;;;3.45;2.67;;;19.00;99.90;;;;;;4995429;28;20033;-79
2021/08/06 07:48:36;;;;;;;2.35;2.15;;;19.00;99.90;;;;;;4993648;28;20030;-80
2021/08/06 07:51:03;;;;;;;2.60;2.40;;;19.00;99.90;;;;;;4992205;28;20038;-80
2021/08/06 07:53:28;;;;;;;2.67;2.10;;;19.00;99.90;;;;;;4970743;28;20680;-80
2021/08/06 07:55:55;;;;;;;2.72;2.53;;;19.10;99.90;;;;;;4988817;28;20039;-80
2021/08/06 07:58:21;;;;;;;2.85;2.25;;;19.20;99.90;;;;;;4973632;28;20408;-80
2021/08/06 08:00:48;;;;;;;2.35;2.17;;;19.30;99.90;;;;;;4990094;28;20019;-80
2021/08/06 08:03:14;;;;;;;4.22;2.00;;;19.40;99.90;;;;;;4955259;28;20598;-81
2021/08/06 08:05:40;;;;;;;2.53;1.90;;;19.50;99.90;;;;;;4989271;28;20034;-80
2021/08/06 08:08:08;;;;;;;2.10;1.90;;;19.50;99.90;;;;;;4974460;28;20121;-80
2021/08/06 08:10:36;;;;;;;1.95;1.75;;;19.60;99.90;;;;;;4972562;28;20081;-81
2021/08/06 08:13:02;;;;;;;2.00;1.80;;;19.70;99.90;;;;;;4979175;28;20112;-81
2021/08/06 08:15:28;;;;;;;2.72;1.75;;;20.00;99.90;;;;;;4973167;28;20023;-80
2021/08/06 08:17:54;;;;;;;2.03;1.83;;;20.20;99.90;;;;;;4980863;28;20141;-81
2021/08/06 08:20:21;;;;;;;1.58;1.20;;;20.50;99.90;;;;;;4975789;28;20163;-80
2021/08/06 08:22:47;;;;;;;1.60;1.50;;;20.80;99.90;;;;;;4986371;28;20059;-80
2021/08/06 08:25:13;;;;;;;1.65;1.55;;;20.80;99.90;;;;;;4958835;28;20041;-80
2021/08/06 08:27:40;;;;;;;1.65;1.55;;;20.80;99.90;;;;;;4976071;28;20051;-80
2021/08/06 08:30:07;;;;;;;1.73;1.27;;;20.70;99.90;;;;;;4973771;28;20034;-81
2021/08/06 08:32:34;;;;;;;2.05;1.20;;;20.60;99.90;;;;;;4989255;28;20038;-79
2021/08/06 08:35:00;;;;;;;1.60;1.23;;;20.30;99.90;;;;;;5001195;28;20038;-80
2021/08/06 08:37:26;;;;;;;1.45;1.35;;;20.10;99.90;;;;;;4979062;28;20038;-80
2021/08/06 08:39:52;;;;;;;5.38;1.40;;;19.90;99.90;;;;;;4975569;28;20026;-79
2021/08/06 08:42:21;;;;;;;2.05;1.52;;;19.80;99.90;;;;;;4972708;28;20038;-80
2021/08/06 08:44:48;;;;;;;1.48;1.10;;;19.80;99.90;;;;;;4987873;28;20161;-81
2021/08/06 08:47:24;;;;;;;1.70;1.60;;;19.90;99.90;;;;;;4976073;28;20134;-80
2021/08/06 08:49:52;;;;;;;1.63;1.33;;;20.00;99.90;;;;;;4990234;28;20040;-80
2021/08/06 08:52:19;;;;;;;4.35;1.35;;;20.00;99.90;;;;;;4965174;28;20085;-82
2021/08/06 08:54:45;;;;;;;1.50;0.90;;;19.90;99.90;;;;;;4990276;28;20030;-80
2021/08/06 08:57:11;;;;;;;1.05;1.00;;;19.80;99.90;;;;;;4978018;28;20496;-80
2021/08/06 08:59:37;;;;;;;1.48;1.02;;;19.70;99.90;;;;;;4988549;28;20022;-80
2021/08/06 09:02:03;;;;;;;1.05;0.93;;;19.50;99.90;;;;;;4973683;28;20085;-80
2021/08/06 09:04:30;;;;;;;1.40;1.30;;;19.30;99.90;;;;;;4983067;28;20035;-80
2021/08/06 09:06:57;;;;;;;1.30;1.20;;;19.10;99.90;;;;;;4988064;28;20030;-80
2021/08/06 09:09:35;;;;;;;1.60;1.25;;;18.80;99.90;;;;;;4985899;28;20080;-80
2021/08/06 09:12:11;;;;;;;1.75;1.30;;;18.50;99.90;;;;;;4984766;28;20050;-81
2021/08/06 09:14:48;;;;;;;1.35;1.20;;;18.30;99.90;;;;;;4993368;28;20042;-80
2021/08/06 09:17:14;;;;;;;1.92;1.17;;;18.10;99.90;;;;;;4990349;28;20629;-81
2021/08/06 09:19:54;;;;;;;2.65;1.40;;;17.90;99.90;;;;;;4973793;28;20025;-80
2021/08/06 09:22:22;;;;;;;1.70;1.50;;;17.70;99.90;;;;;;4986984;28;20110;-81
2021/08/06 09:25:05;;;;;;;1.40;1.30;;;17.70;99.90;;;;;;4977459;28;20026;-81
2021/08/06 09:27:44;;;;;;;1.60;1.30;;;17.50;99.90;;;;;;4987268;28;20508;-80
2021/08/06 09:30:23;;;;;;;1.63;1.52;;;17.50;99.90;;;;;;4970784;28;20039;-80
2021/08/06 09:32:54;;;;;;;2.42;1.42;;;17.50;99.90;;;;;;4969500;28;20031;-80
2021/08/06 09:35:24;;;;;;;2.30;1.15;;;17.50;99.90;;;;;;4994536;28;20034;-80
2021/08/06 09:37:50;;;;;;;1.38;1.27;;;17.50;99.90;;;;;;4990960;28;20448;-82
2021/08/06 09:40:36;;;;;;;1.63;1.20;;;17.50;99.90;;;;;;4955897;28;20050;-81
2021/08/06 09:43:03;;;;;;;;;;;17.40;99.90;;;;;;4989841;28;20105;-82
2021/08/06 09:45:39;;;;;;;1.90;1.33;;;17.40;99.90;;;;;;4977190;28;20028;-81
2021/08/06 09:48:05;;;;;;;1.83;1.70;;;17.30;99.90;;;;;;4974891;28;20847;-81
2021/08/06 09:50:45;;;;;;;2.80;1.40;;;17.20;99.90;;;;;;4972597;28;20051;-81
2021/08/06 09:53:12;;;;;;;1.65;1.52;;;17.00;99.90;;;;;;4990598;28;20046;-81
2021/08/06 09:55:43;;;;;;;1.35;1.25;;;17.00;99.90;;;;;;4958268;28;20034;-81
2021/08/06 09:58:12;;;;;;;3.13;1.77;;;16.90;99.90;;;;;;4955752;28;20739;-81
2021/08/06 10:00:40;;;;;;;1.40;1.30;;;16.80;99.90;;;;;;4990797;28;20062;-81
2021/08/06 10:03:05;;;;;;;1.60;1.50;;;16.70;99.90;;;;;;4992105;28;20074;-81
2021/08/06 10:05:32;;;;;;;2.25;1.30;;;16.60;99.90;;;;;;4971374;28;20158;-81
2021/08/06 10:08:01;;;;;;;2.13;1.60;;;16.50;99.90;;;;;;4983419;28;20451;-81
2021/08/06 10:10:31;;;;;;;1.83;1.73;;;16.50;99.90;;;;;;4975052;28;20042;-82
2021/08/06 10:12:59;;;;;;;2.50;1.80;;;16.50;99.90;;;;;;4975090;28;20027;-80
2021/08/06 10:15:26;;;;;;;1.75;1.50;;;16.50;99.90;;;;;;4989588;28;20018;-80
2021/08/06 10:17:53;;;;;;;2.20;1.90;;;16.50;99.90;;;;;;4990731;28;20385;-80
2021/08/06 10:20:22;;;;;;;1.65;1.55;;;16.60;99.90;;;;;;4978135;28;20054;-81
2021/08/06 10:22:49;;;;;;;2.95;1.85;;;16.60;99.90;;;;;;4974141;28;20081;-80
2021/08/06 10:25:16;;;;;;;2.13;1.90;;;16.70;99.90;;;;;;4989641;28;20042;-80
2021/08/06 10:27:44;;;;;;;2.92;1.75;;;16.70;99.90;;;;;;4992418;28;20440;-80
2021/08/06 10:30:28;;;;;;;1.70;1.60;;;16.80;99.90;;;;;;4988175;28;20030;-80
2021/08/06 10:33:13;;;;;;;2.67;1.83;;;16.90;99.90;;;;;;4976197;28;20027;-81
2021/08/06 10:35:41;;;;;;;2.45;1.58;;;17.00;99.90;;;;;;4992008;28;20026;-81
2021/08/06 10:38:07;;;;;;;1.67;1.58;;;17.10;99.90;;;;;;4997041;28;20034;-81
2021/08/06 10:40:33;;;;;;;1.58;1.48;;;17.20;99.90;;;;;;4976777;28;20035;-81
2021/08/06 10:43:36;;;;;;;1.98;1.80;;;17.30;99.90;;;;;;4989687;28;20022;-80
2021/08/06 10:46:02;;;;;;;1.38;1.27;;;17.40;99.90;;;;;;4991084;28;20033;-80
2021/08/06 10:48:31;;;;;;;2.10;1.67;;;17.50;99.90;;;;;;4962754;28;20035;-80
2021/08/06 10:51:15;;;;;;;2.13;1.92;;;17.50;99.90;;;;;;4987706;28;20031;-80
2021/08/06 10:53:45;;;;;;;2.03;1.58;;;17.60;99.90;;;;;;5002425;28;20177;-81
2021/08/06 10:56:17;;;;;;;3.72;1.70;;;17.80;99.90;;;;;;4987096;28;20038;-80
2021/08/06 10:58:49;;;;;;;1.70;1.52;;;17.90;99.90;;;;;;5009497;28;20515;-80
2021/08/06 11:01:27;;;;;;;2.55;1.35;;;17.80;99.90;;;;;;4992194;28;20019;-81
2021/08/06 11:04:03;;;;;;;1.75;1.27;;;17.80;99.90;;;;;;4991684;28;20023;-80
2021/08/06 11:06:33;;;;;;;1.95;1.17;;;17.70;99.90;;;;;;4988983;28;20038;-80
2021/08/06 11:08:59;;;;;;;0.98;0.98;;;17.70;99.90;;;;;;4984431;28;20129;-80
2021/08/06 11:11:49;;;;;;;2.75;1.00;;;17.60;99.90;;;;;;4987307;28;20036;-80
2021/08/06 11:14:27;;;;;;;1.40;1.13;;;17.70;99.90;;;;;;4984444;28;20495;-80
2021/08/06 11:17:02;;;;;;;1.20;1.10;;;17.70;99.90;;;;;;4983476;28;20034;-80
2021/08/06 11:19:30;;;;;;;0.82;0.82;;;17.90;99.90;;;;;;4983092;28;20466;-82
2021/08/06 11:21:57;;;;;;;1.27;0.80;;;18.10;99.90;;;;;;4972974;28;20392;-81
2021/08/06 11:24:23;;;;;;;0.68;0.68;;;18.20;99.90;;;;;;4982799;28;20421;-81
2021/08/06 11:26:50;;;;;;;0.95;0.75;;;18.40;99.90;;;;;;4985594;28;20037;-81
2021/08/06 11:29:17;;;;;;;0.60;0.60;;;18.40;99.90;;;;;;4979641;28;20030;-81
2021/08/06 11:31:44;;;;;;;0.70;0.70;;;18.50;99.90;;;;;;4971051;28;20105;-81
2021/08/06 11:34:10;;;;;;;1.35;0.70;;;18.50;99.90;;;;;;4987685;28;20682;-81
2021/08/06 11:36:36;;;;;;;2.45;1.10;;;18.60;99.90;;;;;;4983176;28;20059;-80
2021/08/06 11:39:15;;;;;;;1.35;1.10;;;18.70;99.90;;;;;;4975611;28;20030;-80
2021/08/06 11:41:47;;;;;;;1.80;0.90;;;18.90;99.90;;;;;;5003893;28;20057;-81
2021/08/06 11:44:13;;;;;;;0.70;0.70;;;19.10;99.90;;;;;;4991728;28;20038;-80
2021/08/06 11:46:45;;;;;;;1.02;0.98;;;19.20;99.90;;;;;;4954973;28;20487;-81
2021/08/06 11:49:11;;;;;;;0.70;0.70;;;19.30;99.90;;;;;;4992671;28;20041;-82
2021/08/06 11:51:52;;;;;;;1.05;0.80;;;19.30;99.90;;;;;;4992998;28;20025;-82
2021/08/06 11:54:18;;;;;;;0.90;0.90;;;19.30;99.90;;;;;;4970713;28;20088;-82
2021/08/06 11:56:45;;;;;;;1.00;0.90;;;19.20;99.90;;;;;;4969912;28;20038;-81
2021/08/06 11:59:11;;;;;;;1.05;0.95;;;19.10;99.90;;;;;;4984153;28;20038;-81
2021/08/06 12:01:36;;;;;;;1.75;1.00;;;18.90;99.90;;;;;;4992047;28;20026;-82
2021/08/06 12:04:02;;;;;;;2.15;0.95;;;18.60;99.90;;;;;;4956684;28;20121;-81
2021/08/06 12:06:28;;;;;;;2.67;1.25;;;18.40;99.90;;;;;;4974239;28;20085;-81
2021/08/06 12:08:57;;;;;;;1.30;1.20;;;18.30;99.90;;;;;;4971775;28;20038;-81
2021/08/06 12:11:26;;;;;;;1.40;1.30;;;18.20;99.90;;;;;;4988935;28;20096;-81
2021/08/06 12:13:55;;;;;;;1.30;1.20;;;18.20;99.90;;;;;;4989481;28;20026;-81
2021/08/06 12:16:27;;;;;;;1.40;1.30;;;18.20;99.90;;;;;;4975581;28;20029;-81
2021/08/06 12:19:01;;;;;;;1.40;1.30;;;18.30;99.90;;;;;;4989992;28;20500;-81
2021/08/06 12:21:32;;;;;;;2.22;1.17;;;18.50;99.90;;;;;;4990351;28;20037;-81
2021/08/06 12:24:00;;;;;;;1.48;1.30;;;18.70;99.90;;;;;;4990238;28;20400;-80
2021/08/06 12:26:35;;;;;;;1.30;1.15;;;18.90;99.90;;;;;;4991523;28;20030;-81
2021/08/06 12:29:09;;;;;;;1.95;1.08;;;19.00;99.90;;;;;;4982838;28;20037;-81
2021/08/06 12:31:56;;;;;;;1.35;1.10;;;19.00;99.90;;;;;;4990435;28;20483;-81
2021/08/06 12:34:32;;;;;;;1.10;1.05;;;19.00;99.90;;;;;;4973937;28;20485;-81
2021/08/06 12:37:08;;;;;;;1.40;1.30;;;19.00;99.90;;;;;;5005558;28;20029;-80
2021/08/06 12:39:51;;;;;;;1.10;1.00;;;19.10;99.90;;;;;;4979278;28;20031;-81
2021/08/06 12:42:23;;;;;;;1.70;1.00;;;19.10;99.90;;;;;;4991301;28;20114;-81
2021/08/06 12:45:03;;;;;;;1.40;1.30;;;19.20;99.90;;;;;;4974122;28;20484;-82
2021/08/06 12:47:44;;;;;;;0.95;0.95;;;19.20;99.90;;;;;;4978916;28;20026;-81
2021/08/06 12:50:12;;;;;;;1.27;1.15;;;19.30;99.90;;;;;;4973044;28;20057;-81
2021/08/06 12:52:40;;;;;;;1.08;0.98;;;19.30;99.90;;;;;;4970469;28;20105;-81
2021/08/06 12:55:17;;;;;;;1.38;1.10;;;19.40;99.90;;;;;;4958156;28;20385;-81
2021/08/06 12:57:51;;;;;;;1.35;1.00;;;19.50;99.90;;;;;;4950999;28;20035;-81